Time;durP1;ratioP1;P1;durP2;ratioP2;P2;SDS_P1;SDS_P2;PMS_P1;PMS_P2;Temp;Humidity;BMP_temperature;BMP_pressure;BME280_temperature;BME280_humidity;BME280_pressure;Samples;Min_cycle;Max_cycle;Signal;HPM_P1;HPM_P2
2023/05/28 00:01:32;;;;;;;18.13;6.07;;;10.90;99.90;;;;;;5012317;28;20025;-78
2023/05/28 00:03:57;;;;;;;15.23;6.55;;;10.90;99.90;;;;;;5035129;28;20763;-81
2023/05/28 00:06:23;;;;;;;20.40;6.43;;;11.00;99.90;;;;;;5033051;28;20036;-79
2023/05/28 00:08:48;;;;;;;16.95;6.18;;;10.90;99.90;;;;;;5034784;28;20514;-81
2023/05/28 00:11:14;;;;;;;21.88;6.07;;;10.80;99.90;;;;;;5035002;28;20045;-81
2023/05/28 00:13:39;;;;;;;19.13;6.15;;;10.80;99.90;;;;;;5033685;28;20049;-80
2023/05/28 00:16:05;;;;;;;25.05;6.95;;;10.80;99.90;;;;;;5029333;28;20095;-80
2023/05/28 00:18:31;;;;;;;19.92;6.60;;;10.80;99.90;;;;;;5035239;28;20124;-80
2023/05/28 00:20:56;;;;;;;18.38;7.20;;;10.70;99.90;;;;;;5035675;28;20080;-80
2023/05/28 00:23:22;;;;;;;16.60;5.88;;;10.70;99.90;;;;;;5034510;28;20079;-80
2023/05/28 00:25:48;;;;;;;20.42;8.65;;;10.70;99.90;;;;;;5033394;28;20034;-79
2023/05/28 00:28:13;;;;;;;18.38;6.97;;;10.70;99.90;;;;;;5029670;28;20499;-80
2023/05/28 00:30:39;;;;;;;15.30;5.70;;;10.70;99.90;;;;;;5031390;28;20041;-80
2023/05/28 00:33:05;;;;;;;17.27;6.15;;;10.70;99.90;;;;;;5033576;28;20037;-79
2023/05/28 00:35:30;;;;;;;17.42;6.40;;;10.60;99.90;;;;;;5032001;28;20053;-79
2023/05/28 00:37:56;;;;;;;23.55;7.18;;;10.60;99.90;;;;;;5033324;28;20377;-80
2023/05/28 00:40:21;;;;;;;15.85;4.97;;;10.60;99.90;;;;;;5032486;28;21498;-80
2023/05/28 00:42:47;;;;;;;14.93;5.95;;;10.60;99.90;;;;;;5033208;28;20532;-80
2023/05/28 00:45:13;;;;;;;15.60;4.95;;;10.60;99.90;;;;;;5026664;28;20049;-78
2023/05/28 00:47:40;;;;;;;15.57;6.07;;;10.60;99.90;;;;;;5029886;28;20037;-80
2023/05/28 00:50:08;;;;;;;14.57;5.22;;;10.60;99.90;;;;;;5031496;28;20056;-81
2023/05/28 00:52:37;;;;;;;17.25;6.25;;;10.60;99.90;;;;;;5031033;28;20033;-80
2023/05/28 00:55:13;;;;;;;15.77;6.07;;;10.60;99.90;;;;;;5014174;28;20037;-80
2023/05/28 00:57:40;;;;;;;21.02;6.43;;;10.60;99.90;;;;;;5030685;28;20045;-79
2023/05/28 01:00:06;;;;;;;18.85;6.40;;;10.50;99.90;;;;;;5029586;28;20041;-79
2023/05/28 01:02:32;;;;;;;22.70;6.65;;;10.50;99.90;;;;;;5030905;28;20074;-80
2023/05/28 01:04:57;;;;;;;19.35;6.85;;;10.50;99.90;;;;;;5030778;28;20124;-80
2023/05/28 01:07:24;;;;;;;20.10;5.63;;;10.50;99.90;;;;;;5032307;28;20460;-81
2023/05/28 01:09:49;;;;;;;14.50;5.65;;;10.50;99.90;;;;;;5029351;28;20775;-79
2023/05/28 01:12:17;;;;;;;17.25;6.15;;;10.50;99.90;;;;;;5012586;28;20041;-80
2023/05/28 01:14:42;;;;;;;17.27;6.60;;;10.50;99.90;;;;;;5032335;28;20130;-79
2023/05/28 01:17:08;;;;;;;17.85;6.95;;;10.50;99.90;;;;;;5030475;28;20061;-80
2023/05/28 01:19:34;;;;;;;20.95;7.53;;;10.50;99.90;;;;;;5031271;28;20060;-78
2023/05/28 01:22:04;;;;;;;21.70;6.55;;;10.50;99.90;;;;;;5028807;28;20424;-79
2023/05/28 01:24:33;;;;;;;21.33;6.40;;;10.50;99.90;;;;;;5028184;28;20672;-79
2023/05/28 01:26:59;;;;;;;22.33;6.18;;;10.50;99.90;;;;;;5031546;28;20064;-78
2023/05/28 01:29:24;;;;;;;18.38;7.00;;;10.50;99.90;;;;;;5030087;28;20052;-79
2023/05/28 01:31:50;;;;;;;17.92;6.90;;;10.50;99.90;;;;;;5028649;28;20050;-79
2023/05/28 01:34:16;;;;;;;16.80;5.93;;;10.50;99.90;;;;;;5029477;28;20583;-80
2023/05/28 01:36:51;;;;;;;18.08;5.53;;;10.50;99.90;;;;;;5030078;28;20045;-80
2023/05/28 01:39:19;;;;;;;15.05;6.43;;;10.60;99.90;;;;;;5030313;28;20041;-81
2023/05/28 01:41:46;;;;;;;17.25;6.07;;;10.60;99.90;;;;;;5031848;28;20281;-81
2023/05/28 01:44:15;;;;;;;15.50;5.93;;;10.60;99.90;;;;;;5024288;28;20041;-80
2023/05/28 01:46:42;;;;;;;16.20;5.95;;;10.60;99.90;;;;;;5045377;28;20051;-80
2023/05/28 01:49:10;;;;;;;19.77;5.65;;;10.60;99.90;;;;;;5030388;28;20029;-79
2023/05/28 01:51:36;;;;;;;21.48;5.85;;;10.60;99.90;;;;;;5030154;28;20816;-79
2023/05/28 01:54:01;;;;;;;12.10;5.57;;;10.70;99.90;;;;;;5030988;28;20034;-79
2023/05/28 01:56:27;;;;;;;20.02;5.80;;;10.60;99.90;;;;;;5024444;28;20112;-80
2023/05/28 01:58:53;;;;;;;18.30;7.18;;;10.70;99.90;;;;;;5030144;28;20170;-80
2023/05/28 02:01:32;;;;;;;16.52;6.22;;;10.70;99.90;;;;;;5028966;28;20033;-80
2023/05/28 02:03:59;;;;;;;18.90;6.07;;;10.70;99.90;;;;;;5030296;28;20037;-79
2023/05/28 02:06:27;;;;;;;21.83;5.95;;;10.70;99.90;;;;;;5026667;28;20557;-79
2023/05/28 02:08:52;;;;;;;15.23;6.07;;;10.70;99.90;;;;;;5030813;28;20075;-80
2023/05/28 02:11:18;;;;;;;17.42;6.20;;;10.70;99.90;;;;;;5032813;28;20080;-80
2023/05/28 02:13:44;;;;;;;15.43;5.90;;;10.70;99.90;;;;;;5031327;28;20076;-79
2023/05/28 02:16:17;;;;;;;19.75;7.47;;;10.70;99.90;;;;;;5030360;28;20045;-80
2023/05/28 02:18:44;;;;;;;17.00;5.75;;;10.60;99.90;;;;;;5030532;28;20187;-80
2023/05/28 02:21:10;;;;;;;16.48;7.10;;;10.70;99.90;;;;;;5030925;28;20133;-81
2023/05/28 02:23:42;;;;;;;19.38;7.45;;;10.60;99.90;;;;;;5031273;28;20503;-80
2023/05/28 02:26:07;;;;;;;20.45;5.97;;;10.70;99.90;;;;;;5030196;28;20075;-78
2023/05/28 02:28:33;;;;;;;16.92;6.13;;;10.60;99.90;;;;;;5030240;28;20041;-80
2023/05/28 02:30:59;;;;;;;21.17;7.25;;;10.70;99.90;;;;;;5028791;28;20067;-79
2023/05/28 02:33:25;;;;;;;18.27;6.25;;;10.70;99.90;;;;;;5028107;28;20037;-80
2023/05/28 02:35:50;;;;;;;14.38;6.18;;;10.70;99.90;;;;;;5026013;28;20056;-80
2023/05/28 02:38:16;;;;;;;18.00;6.53;;;10.70;99.90;;;;;;5029639;28;20049;-80
2023/05/28 02:40:42;;;;;;;15.60;5.97;;;10.60;99.90;;;;;;5026732;28;20053;-80
2023/05/28 02:43:07;;;;;;;18.15;5.75;;;10.60;99.90;;;;;;5029046;28;20056;-79
2023/05/28 02:45:33;;;;;;;25.23;6.07;;;10.70;99.90;;;;;;5027891;28;20069;-80
2023/05/28 02:47:58;;;;;;;19.13;5.93;;;10.70;99.90;;;;;;5029365;28;20052;-80
2023/05/28 02:50:24;;;;;;;13.40;5.57;;;10.80;99.90;;;;;;5029985;28;20045;-80
2023/05/28 02:52:50;;;;;;;18.60;6.68;;;10.70;99.90;;;;;;5028769;28;20037;-79
2023/05/28 02:55:15;;;;;;;20.63;6.40;;;10.70;99.90;;;;;;5026618;28;20056;-81
2023/05/28 02:57:41;;;;;;;21.35;6.40;;;10.70;99.90;;;;;;5028903;28;20037;-80
2023/05/28 03:00:09;;;;;;;24.55;6.50;;;10.70;99.90;;;;;;5027941;28;20042;-79
2023/05/28 03:02:35;;;;;;;16.98;7.10;;;10.70;99.90;;;;;;5025304;28;20053;-79
2023/05/28 03:05:02;;;;;;;21.73;7.38;;;10.60;99.90;;;;;;5024360;28;20474;-79
2023/05/28 03:07:29;;;;;;;23.88;5.88;;;10.60;99.90;;;;;;5029548;28;20048;-80
2023/05/28 03:09:54;;;;;;;15.40;5.78;;;10.60;99.90;;;;;;5028998;28;20045;-79
2023/05/28 03:12:20;;;;;;;22.02;6.57;;;10.70;99.90;;;;;;5030592;28;20040;-79
2023/05/28 03:14:45;;;;;;;15.10;6.55;;;10.60;99.90;;;;;;5026742;28;20056;-79
2023/05/28 03:17:11;;;;;;;19.17;6.65;;;10.60;99.90;;;;;;5027317;28;20049;-80
2023/05/28 03:19:36;;;;;;;14.90;6.05;;;10.60;99.90;;;;;;5025177;28;20072;-78
2023/05/28 03:22:02;;;;;;;17.98;6.68;;;10.60;99.90;;;;;;5029246;28;20041;-80
2023/05/28 03:24:28;;;;;;;21.67;6.53;;;10.70;99.90;;;;;;5029017;28;20111;-80
2023/05/28 03:26:53;;;;;;;21.50;6.90;;;10.70;99.90;;;;;;5011196;28;20400;-80
2023/05/28 03:29:19;;;;;;;18.40;6.05;;;10.70;99.90;;;;;;5025546;28;20097;-78
2023/05/28 03:31:46;;;;;;;20.30;6.68;;;10.70;99.90;;;;;;5022153;28;20049;-80
2023/05/28 03:34:12;;;;;;;22.45;6.18;;;10.70;99.90;;;;;;5028444;28;20037;-80
2023/05/28 03:36:40;;;;;;;16.83;6.72;;;10.70;99.90;;;;;;5027795;28;20037;-80
2023/05/28 03:39:07;;;;;;;18.65;6.68;;;10.70;99.90;;;;;;5025823;28;20049;-79
2023/05/28 03:41:32;;;;;;;18.13;5.70;;;10.70;99.90;;;;;;5029397;28;20143;-80
2023/05/28 03:43:58;;;;;;;18.33;5.25;;;10.70;99.90;;;;;;5027562;28;20065;-79
2023/05/28 03:46:23;;;;;;;12.90;5.03;;;10.60;99.90;;;;;;5012984;28;20045;-80
2023/05/28 03:48:49;;;;;;;18.40;5.72;;;10.70;99.90;;;;;;5027828;28;20151;-79
2023/05/28 03:51:14;;;;;;;16.35;5.80;;;10.60;99.90;;;;;;5009991;28;20051;-80
2023/05/28 03:53:40;;;;;;;20.98;6.30;;;10.60;99.90;;;;;;5029252;28;20089;-79
2023/05/28 03:56:06;;;;;;;14.38;5.00;;;10.60;99.90;;;;;;5028429;28;20152;-80
2023/05/28 03:58:31;;;;;;;16.58;5.90;;;10.60;99.90;;;;;;5028813;28;20518;-81
2023/05/28 04:00:57;;;;;;;16.10;5.47;;;10.60;99.90;;;;;;5027930;28;20048;-80
2023/05/28 04:03:22;;;;;;;17.77;5.85;;;10.60;99.90;;;;;;5026661;28;20091;-78
2023/05/28 04:05:48;;;;;;;19.20;5.13;;;10.60;99.90;;;;;;5027353;28;20053;-80
2023/05/28 04:08:13;;;;;;;13.95;6.22;;;10.60;99.90;;;;;;5031808;28;20041;-81
2023/05/28 04:10:39;;;;;;;16.27;5.60;;;10.60;99.90;;;;;;5031833;28;20154;-79
2023/05/28 04:13:05;;;;;;;18.33;5.95;;;10.70;99.90;;;;;;5030721;28;20033;-80
2023/05/28 04:15:31;;;;;;;15.15;6.05;;;10.60;99.90;;;;;;5029275;28;20136;-80
2023/05/28 04:17:56;;;;;;;22.15;6.13;;;10.60;99.90;;;;;;5029695;28;20048;-78
2023/05/28 04:20:22;;;;;;;14.23;5.90;;;10.70;99.90;;;;;;5027119;28;20034;-80
2023/05/28 04:22:47;;;;;;;17.30;6.75;;;10.80;99.90;;;;;;5029374;28;20038;-80
2023/05/28 04:25:13;;;;;;;15.68;5.88;;;10.90;99.90;;;;;;5029315;28;20033;-79
2023/05/28 04:27:40;;;;;;;16.48;5.60;;;11.50;99.90;;;;;;5030168;28;20048;-80
2023/05/28 04:30:09;;;;;;;13.95;4.88;;;12.10;99.90;;;;;;5032006;28;20049;-79
2023/05/28 04:32:35;;;;;;;11.27;4.70;;;12.50;99.90;;;;;;5014167;28;20037;-80
2023/05/28 04:35:03;;;;;;;10.10;4.60;;;12.60;99.90;;;;;;5030648;28;20505;-80
2023/05/28 04:37:30;;;;;;;13.38;5.10;;;12.60;99.90;;;;;;5027104;28;20057;-81
2023/05/28 04:39:56;;;;;;;12.80;4.60;;;12.40;99.90;;;;;;5026117;28;20151;-80
2023/05/28 04:42:21;;;;;;;18.30;5.45;;;12.30;99.90;;;;;;5026375;28;20621;-79
2023/05/28 04:44:47;;;;;;;14.77;5.95;;;12.20;99.90;;;;;;5023985;28;20053;-78
2023/05/28 04:47:13;;;;;;;13.43;5.72;;;12.20;99.90;;;;;;5021182;28;20048;-80
2023/05/28 04:49:40;;;;;;;12.90;5.03;;;12.10;99.90;;;;;;5027316;28;20395;-80
2023/05/28 04:52:06;;;;;;;11.95;4.72;;;12.20;99.90;;;;;;5023228;28;20069;-78
2023/05/28 04:54:32;;;;;;;14.90;5.90;;;12.40;99.90;;;;;;5025895;28;20045;-81
2023/05/28 04:56:57;;;;;;;17.13;5.93;;;12.60;99.90;;;;;;5026586;28;20033;-81
2023/05/28 04:59:23;;;;;;;14.93;5.25;;;12.70;99.90;;;;;;5030475;28;20107;-80
2023/05/28 05:01:49;;;;;;;12.32;4.93;;;12.70;99.90;;;;;;5023036;28;20132;-80
2023/05/28 05:04:15;;;;;;;16.55;5.43;;;12.70;99.90;;;;;;5026692;28;20176;-80
2023/05/28 05:06:41;;;;;;;12.73;5.80;;;13.30;99.90;;;;;;5024787;28;20112;-80
2023/05/28 05:09:07;;;;;;;15.98;5.97;;;12.80;99.90;;;;;;5024548;28;20037;-78
2023/05/28 05:11:33;;;;;;;13.30;5.35;;;13.00;99.90;;;;;;5024935;28;20049;-80
2023/05/28 05:13:59;;;;;;;21.27;5.78;;;13.20;99.90;;;;;;5024045;28;20037;-80
2023/05/28 05:16:25;;;;;;;13.82;4.53;;;13.60;99.90;;;;;;5025966;28;20054;-81
2023/05/28 05:18:50;;;;;;;12.57;4.93;;;14.20;99.90;;;;;;5024582;28;20107;-80
2023/05/28 05:21:17;;;;;;;11.57;4.43;;;15.10;99.90;;;;;;5022107;28;20037;-81
2023/05/28 05:23:42;;;;;;;8.95;3.85;;;16.40;99.90;;;;;;5021763;28;20596;-80
2023/05/28 05:26:12;;;;;;;11.27;5.20;;;17.70;99.90;;;;;;5007541;28;20064;-81
2023/05/28 05:28:38;;;;;;;9.52;3.90;;;18.90;99.90;;;;;;5024128;28;20056;-79
2023/05/28 05:31:04;;;;;;;9.70;4.50;;;20.10;99.90;;;;;;5026110;28;20046;-81
2023/05/28 05:33:30;;;;;;;12.20;4.38;;;20.60;99.90;;;;;;5023671;28;20041;-80
2023/05/28 05:35:55;;;;;;;10.85;4.32;;;20.80;99.90;;;;;;5024545;28;20052;-81
2023/05/28 05:38:21;;;;;;;10.90;3.80;;;20.40;99.90;;;;;;5022057;28;20049;-80
2023/05/28 05:40:46;;;;;;;10.02;4.03;;;19.80;99.90;;;;;;5024026;28;20060;-78
2023/05/28 05:43:12;;;;;;;11.07;4.32;;;19.40;99.90;;;;;;5023803;28;20049;-80
2023/05/28 05:45:38;;;;;;;14.18;4.22;;;18.90;99.90;;;;;;5027406;28;20515;-81
2023/05/28 05:48:03;;;;;;;14.73;4.35;;;18.70;99.90;;;;;;5030503;28;20171;-81
2023/05/28 05:50:29;;;;;;;9.65;4.10;;;18.70;99.90;;;;;;5024781;28;20043;-80
2023/05/28 05:52:55;;;;;;;13.10;4.07;;;18.20;99.90;;;;;;5022853;28;20964;-80
2023/05/28 05:55:20;;;;;;;12.30;4.38;;;18.10;99.90;;;;;;5023454;28;20086;-81
2023/05/28 05:57:46;;;;;;;9.88;4.03;;;17.70;99.90;;;;;;5022586;28;20041;-80
2023/05/28 06:00:13;;;;;;;12.25;5.10;;;17.40;99.90;;;;;;5032435;28;20037;-81
2023/05/28 06:02:38;;;;;;;13.55;4.78;;;17.30;99.90;;;;;;5029653;28;20072;-80
2023/05/28 06:05:06;;;;;;;12.90;4.82;;;17.10;99.90;;;;;;5030582;28;20069;-81
2023/05/28 06:07:31;;;;;;;16.45;4.60;;;16.90;99.90;;;;;;5031857;28;20038;-78
2023/05/28 06:09:57;;;;;;;10.65;4.40;;;16.80;99.90;;;;;;5026461;28;20034;-78
2023/05/28 06:12:23;;;;;;;12.30;4.25;;;16.50;99.90;;;;;;5028172;28;20107;-81
2023/05/28 06:14:49;;;;;;;12.45;4.40;;;16.30;99.90;;;;;;5024751;28;20036;-80
2023/05/28 06:17:15;;;;;;;10.68;4.13;;;16.30;99.90;;;;;;5026061;28;20045;-82
2023/05/28 06:19:41;;;;;;;8.10;3.30;;;16.50;99.90;;;;;;5022073;28;20144;-81
2023/05/28 06:22:07;;;;;;;9.45;3.80;;;16.80;99.90;;;;;;5019991;28;20981;-81
2023/05/28 06:24:33;;;;;;;13.23;4.72;;;17.10;99.90;;;;;;5019299;28;20054;-81
2023/05/28 06:26:59;;;;;;;10.88;4.07;;;17.40;99.90;;;;;;5026205;28;20045;-81
2023/05/28 06:29:24;;;;;;;11.95;3.33;;;17.80;99.90;;;;;;5024417;28;20033;-81
2023/05/28 06:31:50;;;;;;;10.70;3.75;;;17.90;99.90;;;;;;5025143;28;20045;-79
2023/05/28 06:34:16;;;;;;;9.85;3.63;;;18.20;99.90;;;;;;5024362;28;20037;-81
2023/05/28 06:36:42;;;;;;;13.82;4.35;;;18.40;99.90;;;;;;5015730;28;20060;-81
2023/05/28 06:39:08;;;;;;;9.40;3.90;;;18.60;99.90;;;;;;5017827;28;20036;-80
2023/05/28 06:41:34;;;;;;;9.57;3.80;;;18.80;99.90;;;;;;5017114;28;20049;-80
2023/05/28 06:44:00;;;;;;;11.52;3.75;;;18.90;99.90;;;;;;5021231;28;20518;-80
2023/05/28 06:46:27;;;;;;;12.05;4.05;;;19.10;99.90;;;;;;5017632;28;20041;-82
2023/05/28 06:48:54;;;;;;;12.13;3.95;;;19.30;99.90;;;;;;5019568;28;20041;-79
2023/05/28 06:51:20;;;;;;;10.43;4.35;;;19.30;99.90;;;;;;5023812;28;20090;-81
2023/05/28 06:53:46;;;;;;;8.75;4.47;;;19.30;99.90;;;;;;5023577;28;20045;-81
2023/05/28 06:56:12;;;;;;;11.68;4.18;;;19.40;99.90;;;;;;5025498;28;20045;-81
2023/05/28 06:58:37;;;;;;;9.98;4.32;;;19.50;99.90;;;;;;5023806;28;20041;-81
2023/05/28 07:01:04;;;;;;;12.65;5.50;;;19.70;99.90;;;;;;5021224;28;20710;-80
2023/05/28 07:03:30;;;;;;;9.13;4.68;;;19.80;99.90;;;;;;5024496;28;20049;-81
2023/05/28 07:05:57;;;;;;;10.00;5.28;;;19.80;99.90;;;;;;5024721;28;20049;-84
2023/05/28 07:08:23;;;;;;;13.70;5.13;;;19.80;99.90;;;;;;5024257;28;20049;-80
2023/05/28 07:10:48;;;;;;;8.45;4.85;;;19.90;99.90;;;;;;5024902;28;20061;-81
2023/05/28 07:13:14;;;;;;;10.88;5.07;;;19.80;99.90;;;;;;5024361;28;20430;-82
2023/05/28 07:15:40;;;;;;;11.95;4.85;;;19.80;99.90;;;;;;5023185;28;20392;-80
2023/05/28 07:18:05;;;;;;;10.57;4.65;;;19.80;99.90;;;;;;5021655;28;20036;-82
2023/05/28 07:20:31;;;;;;;9.38;4.30;;;19.90;99.90;;;;;;5022273;28;20156;-81
2023/05/28 07:22:56;;;;;;;13.73;5.60;;;20.00;99.90;;;;;;5029395;28;20037;-81
2023/05/28 07:25:22;;;;;;;9.02;4.45;;;20.50;99.90;;;;;;5025504;28;20041;-77
2023/05/28 07:27:48;;;;;;;8.55;5.07;;;20.40;99.90;;;;;;5023658;28;20539;-79
2023/05/28 07:30:14;;;;;;;9.30;4.70;;;20.40;99.90;;;;;;5023917;28;20044;-80
2023/05/28 07:32:39;;;;;;;13.85;5.72;;;20.40;99.90;;;;;;5023023;28;20064;-81
2023/05/28 07:35:06;;;;;;;10.50;4.88;;;20.50;99.90;;;;;;5027431;28;20042;-81
2023/05/28 07:37:32;;;;;;;11.32;5.03;;;20.40;99.90;;;;;;5021652;28;20049;-80
2023/05/28 07:39:57;;;;;;;11.20;4.88;;;20.40;99.90;;;;;;5025267;28;20101;-80
2023/05/28 07:42:23;;;;;;;8.48;4.50;;;20.80;99.90;;;;;;5019484;28;20034;-79
2023/05/28 07:44:48;;;;;;;8.52;4.78;;;20.40;99.90;;;;;;5020537;28;20041;-77
2023/05/28 07:47:15;;;;;;;12.45;5.20;;;20.40;99.90;;;;;;5020536;28;20049;-81
2023/05/28 07:49:41;;;;;;;12.68;4.85;;;20.10;99.90;;;;;;5025771;28;20048;-78
2023/05/28 07:52:07;;;;;;;11.15;5.07;;;19.90;99.90;;;;;;5020577;28;20045;-82
2023/05/28 07:54:33;;;;;;;11.07;5.40;;;20.10;99.90;;;;;;5009798;28;20047;-80
2023/05/28 07:57:00;;;;;;;8.52;4.65;;;20.10;99.90;;;;;;5027963;28;20104;-79
2023/05/28 07:59:26;;;;;;;9.13;4.93;;;20.40;99.90;;;;;;5025029;28;20041;-80
2023/05/28 08:01:52;;;;;;;8.60;4.88;;;20.10;99.90;;;;;;5026615;28;20045;-80
2023/05/28 08:04:18;;;;;;;7.68;4.97;;;20.40;99.90;;;;;;5027021;28;20045;-80
2023/05/28 08:06:43;;;;;;;9.80;4.28;;;20.50;99.90;;;;;;5028862;28;20103;-79
2023/05/28 08:09:09;;;;;;;10.30;5.32;;;20.70;99.90;;;;;;5032043;28;20041;-81
2023/05/28 08:11:34;;;;;;;11.27;5.30;;;20.80;99.90;;;;;;5032694;28;20133;-80
2023/05/28 08:14:00;;;;;;;6.75;4.53;;;20.90;99.90;;;;;;5031743;28;20033;-78
2023/05/28 08:16:26;;;;;;;10.52;4.70;;;21.20;99.90;;;;;;5031439;28;20045;-80
2023/05/28 08:18:51;;;;;;;9.80;4.80;;;21.20;99.90;;;;;;5029040;28;20095;-79
2023/05/28 08:21:17;;;;;;;8.98;4.97;;;21.30;99.90;;;;;;5031070;28;20089;-81
2023/05/28 08:23:42;;;;;;;8.80;4.88;;;21.30;99.90;;;;;;5028873;28;20099;-80
2023/05/28 08:26:08;;;;;;;9.23;5.03;;;21.40;99.90;;;;;;5028916;28;20133;-79
2023/05/28 08:28:33;;;;;;;10.05;4.90;;;21.40;99.90;;;;;;5026883;28;20048;-79
2023/05/28 08:30:59;;;;;;;9.48;5.07;;;21.70;99.90;;;;;;5030867;28;20048;-80
2023/05/28 08:33:25;;;;;;;7.35;4.72;;;21.30;99.90;;;;;;5033581;28;20041;-79
2023/05/28 08:35:50;;;;;;;9.52;4.88;;;21.40;99.90;;;;;;5032698;28;20172;-81
2023/05/28 08:38:16;;;;;;;13.43;5.00;;;21.30;99.90;;;;;;5029815;28;20053;-80
2023/05/28 08:40:48;;;;;;;11.02;4.63;;;21.30;99.70;;;;;;5025595;28;20044;-81
2023/05/28 08:43:13;;;;;;;6.85;4.15;;;21.40;99.90;;;;;;5027394;28;20501;-80
2023/05/28 08:45:39;;;;;;;9.82;4.97;;;21.50;99.90;;;;;;5025683;28;20137;-79
2023/05/28 08:48:08;;;;;;;11.68;4.13;;;21.50;99.90;;;;;;5028147;28;20468;-80
2023/05/28 08:50:40;;;;;;;10.30;4.72;;;21.50;99.90;;;;;;5027722;28;20041;-80
2023/05/28 08:53:07;;;;;;;21.27;5.50;;;21.70;99.90;;;;;;5028404;28;20064;-80
2023/05/28 08:55:34;;;;;;;9.98;3.97;;;21.70;99.90;;;;;;5029478;28;20404;-81
2023/05/28 08:58:00;;;;;;;10.38;4.43;;;21.70;99.90;;;;;;5025881;28;20060;-81
2023/05/28 09:00:25;;;;;;;16.25;4.47;;;21.60;99.60;;;;;;5032122;28;20042;-79
2023/05/28 09:02:51;;;;;;;9.13;4.32;;;21.60;99.90;;;;;;5028388;28;20046;-79
2023/05/28 09:05:17;;;;;;;11.13;4.10;;;21.50;99.60;;;;;;5030508;28;20044;-81
2023/05/28 09:07:43;;;;;;;10.52;5.13;;;21.50;99.20;;;;;;5025114;28;20053;-79
2023/05/28 09:10:11;;;;;;;8.73;4.28;;;21.40;98.90;;;;;;5029317;28;20044;-79
2023/05/28 09:12:40;;;;;;;7.25;3.47;;;21.50;99.30;;;;;;5030676;28;20041;-80
2023/05/28 09:15:07;;;;;;;6.60;4.30;;;21.50;99.60;;;;;;5031000;28;20093;-80
2023/05/28 09:17:37;;;;;;;8.13;4.63;;;21.70;98.70;;;;;;5028987;28;20061;-80
2023/05/28 09:20:10;;;;;;;6.60;3.72;;;21.90;98.40;;;;;;5031127;28;20050;-79
2023/05/28 09:22:37;;;;;;;8.25;4.53;;;21.70;96.70;;;;;;5029565;28;20430;-79
2023/05/28 09:25:04;;;;;;;7.38;4.25;;;21.70;96.10;;;;;;5029269;28;20128;-82
2023/05/28 09:27:30;;;;;;;5.88;3.85;;;21.70;96.40;;;;;;5030940;28;20041;-80
2023/05/28 09:29:55;;;;;;;7.22;4.18;;;21.70;95.90;;;;;;5023388;28;20865;-81
2023/05/28 09:32:21;;;;;;;5.13;4.00;;;21.50;95.00;;;;;;5030376;28;20065;-81
2023/05/28 09:34:49;;;;;;;8.45;4.60;;;21.50;95.10;;;;;;5027414;28;20040;-80
2023/05/28 09:37:16;;;;;;;6.20;3.70;;;21.60;95.10;;;;;;5028005;28;20531;-80
2023/05/28 09:39:42;;;;;;;7.13;3.92;;;21.70;95.20;;;;;;5026892;28;20034;-80
2023/05/28 09:42:11;;;;;;;18.88;4.60;;;21.80;94.10;;;;;;5030209;28;20102;-79
2023/05/28 09:44:40;;;;;;;7.05;4.50;;;21.80;93.10;;;;;;5025001;28;20217;-80
2023/05/28 09:47:13;;;;;;;29.33;6.22;;;21.90;93.90;;;;;;5026396;28;20049;-80
2023/05/28 09:49:39;;;;;;;8.55;5.03;;;22.10;95.30;;;;;;5028228;28;20050;-81
2023/05/28 09:52:08;;;;;;;6.32;4.40;;;22.10;93.50;;;;;;5027685;28;20084;-81
2023/05/28 09:54:35;;;;;;;13.30;4.72;;;22.10;92.70;;;;;;5026717;28;20053;-79
2023/05/28 09:57:03;;;;;;;11.48;4.57;;;22.10;93.40;;;;;;5023452;28;20049;-81
2023/05/28 09:59:31;;;;;;;7.80;4.45;;;22.00;93.30;;;;;;5024333;28;20041;-80
2023/05/28 10:02:13;;;;;;;10.10;4.97;;;22.00;92.90;;;;;;5027946;28;20450;-80
2023/05/28 10:04:39;;;;;;;6.53;4.70;;;22.10;92.50;;;;;;5027564;28;20117;-78
2023/05/28 10:07:06;;;;;;;7.25;4.85;;;21.90;92.70;;;;;;5028933;28;20092;-80
2023/05/28 10:09:38;;;;;;;7.13;4.50;;;21.90;93.00;;;;;;5041927;28;20065;-80
2023/05/28 10:12:16;;;;;;;9.75;5.15;;;21.70;92.70;;;;;;5027498;28;20045;-80
2023/05/28 10:14:43;;;;;;;8.00;4.95;;;21.80;93.00;;;;;;5029521;28;20053;-79
2023/05/28 10:17:08;;;;;;;8.10;4.68;;;21.80;92.70;;;;;;5027018;28;20582;-79
2023/05/28 10:19:35;;;;;;;7.57;4.60;;;21.70;93.00;;;;;;5027026;28;20049;-79
2023/05/28 10:22:01;;;;;;;13.90;4.43;;;21.80;93.00;;;;;;5029388;28;20045;-81
2023/05/28 10:24:27;;;;;;;8.82;4.65;;;21.60;93.00;;;;;;5025524;28;20128;-79
2023/05/28 10:26:53;;;;;;;13.50;5.10;;;21.70;93.90;;;;;;5030690;28;20507;-80
2023/05/28 10:29:20;;;;;;;8.75;4.68;;;21.80;93.90;;;;;;5025991;28;20045;-78
2023/05/28 10:31:57;;;;;;;9.07;4.60;;;21.80;93.40;;;;;;5027849;28;20107;-80
2023/05/28 10:34:32;;;;;;;9.38;4.45;;;21.90;92.90;;;;;;5027818;28;20041;-81
2023/05/28 10:37:02;;;;;;;8.97;4.97;;;21.90;93.70;;;;;;5027990;28;20530;-79
2023/05/28 10:39:36;;;;;;;7.07;4.15;;;22.10;94.10;;;;;;5025022;28;20773;-79
2023/05/28 10:42:03;;;;;;;7.88;4.78;;;22.30;93.70;;;;;;5022884;28;20053;-81
2023/05/28 10:45:03;;;;;;;8.57;4.80;;;22.30;93.30;;;;;;5027829;28;20052;-81
2023/05/28 10:47:50;;;;;;;8.75;4.80;;;22.50;93.50;;;;;;5023768;28;20073;-81
2023/05/28 10:50:17;;;;;;;6.70;4.85;;;22.50;93.30;;;;;;5022990;28;20099;-80
2023/05/28 10:53:04;;;;;;;8.93;4.88;;;22.60;93.30;;;;;;5023335;28;20099;-81
2023/05/28 10:55:46;;;;;;;9.10;4.55;;;22.70;94.20;;;;;;5020289;28;20196;-80
2023/05/28 10:58:13;;;;;;;8.18;4.38;;;22.80;92.30;;;;;;5040616;28;20091;-80
2023/05/28 11:00:42;;;;;;;8.60;4.72;;;22.80;93.20;;;;;;5024473;28;20090;-81
2023/05/28 11:03:08;;;;;;;6.93;4.85;;;22.90;93.00;;;;;;5022875;28;20057;-80
2023/05/28 11:05:35;;;;;;;7.13;4.82;;;22.80;92.40;;;;;;5022314;28;20044;-80
2023/05/28 11:08:01;;;;;;;5.93;4.25;;;22.80;91.70;;;;;;5024980;28;20049;-84
2023/05/28 11:10:38;;;;;;;6.53;4.50;;;22.90;91.80;;;;;;5024131;28;20423;-79
2023/05/28 11:13:03;;;;;;;6.93;5.07;;;22.90;91.50;;;;;;5023985;28;20095;-80
2023/05/28 11:15:29;;;;;;;9.77;4.72;;;22.80;91.70;;;;;;5023970;28;20045;-79
2023/05/28 11:17:55;;;;;;;12.32;5.13;;;22.80;91.60;;;;;;5027835;28;20048;-81
2023/05/28 11:20:25;;;;;;;5.72;4.55;;;22.50;90.50;;;;;;5027684;28;20076;-79
2023/05/28 11:22:52;;;;;;;4.78;4.05;;;22.30;88.00;;;;;;5028374;28;20064;-82
2023/05/28 11:25:21;;;;;;;8.30;4.78;;;22.70;90.60;;;;;;5024446;28;20502;-81
2023/05/28 11:27:47;;;;;;;5.70;4.22;;;22.40;88.60;;;;;;5029103;28;20121;-80
2023/05/28 11:30:18;;;;;;;8.27;4.63;;;22.40;87.80;;;;;;5028388;28;20053;-80
2023/05/28 11:32:45;;;;;;;4.85;4.32;;;22.40;87.20;;;;;;5024293;28;20084;-81
2023/05/28 11:35:12;;;;;;;4.75;3.90;;;22.40;88.30;;;;;;5021755;28;21862;-81
2023/05/28 11:37:39;;;;;;;4.88;4.25;;;22.40;85.90;;;;;;5024779;28;20072;-82
2023/05/28 11:40:10;;;;;;;5.50;4.20;;;22.40;88.00;;;;;;5020885;28;20045;-78
2023/05/28 11:42:38;;;;;;;6.43;5.63;;;22.60;87.80;;;;;;5019806;28;20216;-81
2023/05/28 11:45:05;;;;;;;11.27;4.75;;;22.50;85.40;;;;;;5023785;28;20061;-81
2023/05/28 11:47:34;;;;;;;6.55;4.95;;;22.50;85.20;;;;;;5029177;28;20574;-81
2023/05/28 11:50:07;;;;;;;8.15;5.43;;;22.40;83.70;;;;;;5026144;28;20672;-82
2023/05/28 11:52:33;;;;;;;6.97;4.30;;;22.30;84.60;;;;;;5024074;28;20120;-82
2023/05/28 11:55:01;;;;;;;12.60;5.40;;;22.40;84.10;;;;;;5029408;28;20156;-81
2023/05/28 11:57:28;;;;;;;8.05;4.85;;;22.50;83.50;;;;;;5027894;28;20029;-82
2023/05/28 12:00:15;;;;;;;4.60;3.90;;;22.40;82.80;;;;;;5028898;28;20160;-80
2023/05/28 12:02:54;;;;;;;4.53;4.05;;;22.50;81.00;;;;;;5026267;28;21138;-81
2023/05/28 12:05:20;;;;;;;5.75;3.97;;;22.50;81.00;;;;;;5027146;28;20113;-80
2023/05/28 12:07:51;;;;;;;11.23;4.25;;;22.40;81.80;;;;;;5026633;28;20092;-80
2023/05/28 12:10:22;;;;;;;9.48;4.47;;;22.40;81.70;;;;;;5030856;28;20053;-81
2023/05/28 12:12:48;;;;;;;7.30;4.03;;;22.30;82.50;;;;;;5028484;28;20209;-81
2023/05/28 12:15:15;;;;;;;6.63;4.18;;;22.30;84.00;;;;;;5027455;28;20080;-81
2023/05/28 12:17:43;;;;;;;4.30;3.47;;;22.20;84.10;;;;;;5029703;28;20038;-81
2023/05/28 12:20:12;;;;;;;6.35;2.42;;;22.00;83.40;;;;;;5028201;28;20041;-80
2023/05/28 12:22:38;;;;;;;4.85;3.70;;;22.10;82.00;;;;;;5026323;28;20091;-81
2023/05/28 12:25:06;;;;;;;3.80;3.45;;;22.20;86.90;;;;;;5022563;28;20042;-82
2023/05/28 12:27:31;;;;;;;4.40;2.45;;;22.20;84.90;;;;;;5026464;28;20180;-81
2023/05/28 12:29:57;;;;;;;5.40;2.47;;;22.30;85.00;;;;;;5028530;28;20140;-81
2023/05/28 12:32:23;;;;;;;4.75;2.45;;;22.30;85.80;;;;;;5027741;28;20086;-80
2023/05/28 12:34:50;;;;;;;6.38;3.15;;;22.30;85.10;;;;;;5026049;28;20122;-78
2023/05/28 12:37:16;;;;;;;4.28;2.10;;;22.20;83.90;;;;;;5025825;28;20048;-80
2023/05/28 12:39:41;;;;;;;4.45;2.75;;;22.30;87.70;;;;;;5023317;28;20049;-79